Time;durP1;ratioP1;P1;durP2;ratioP2;P2;SDS_P1;SDS_P2;PMS_P1;PMS_P2;Temp;Humidity;BMP_temperature;BMP_pressure;BME280_temperature;BME280_humidity;BME280_pressure;Samples;Min_cycle;Max_cycle;Signal;HPM_P1;HPM_P2
2023/04/19 00:01:55;;;;;;;5.53;5.03;;;;;;;;;;5003433;28;20223;-86
2023/04/19 00:04:24;;;;;;;6.27;5.20;;;;;;;;;;5012119;28;20265;-86
2023/04/19 00:06:51;;;;;;;6.03;5.00;;;;;;;;;;5008860;28;20277;-86
2023/04/19 00:09:18;;;;;;;5.40;4.90;;;;;;;;;;5006503;28;20223;-86
2023/04/19 00:11:45;;;;;;;6.40;4.77;;;;;;;;;;5010063;28;20318;-86
2023/04/19 00:14:12;;;;;;;5.50;4.87;;;;;;;;;;4992853;28;20227;-87
2023/04/19 00:16:40;;;;;;;5.43;4.93;;;;;;;;;;4991916;28;20601;-86
2023/04/19 00:19:07;;;;;;;7.53;4.97;;;;;;;;;;4992581;28;20204;-86
2023/04/19 00:21:36;;;;;;;4.53;4.13;;;;;;;;;;5000994;28;20223;-86
2023/04/19 00:24:03;;;;;;;7.10;4.73;;;;;;;;;;5010834;28;20211;-87
2023/04/19 00:26:30;;;;;;;7.13;5.17;;;;;;;;;;5010418;28;20235;-87
2023/04/19 00:28:57;;;;;;;4.73;4.33;;;;;;;;;;5007365;28;20215;-86
2023/04/19 00:31:24;;;;;;;4.83;4.33;;;;;;;;;;5011482;28;20241;-86
2023/04/19 00:33:51;;;;;;;4.70;4.30;;;;;;;;;;4995836;28;20207;-86
2023/04/19 00:36:18;;;;;;;4.00;3.70;;;;;;;;;;5005796;28;20234;-86
2023/04/19 00:38:46;;;;;;;4.83;3.90;;;;;;;;;;5011870;28;20204;-86
2023/04/19 00:41:13;;;;;;;4.90;4.50;;;;;;;;;;4998270;28;20232;-87
2023/04/19 00:43:40;;;;;;;4.37;3.97;;;;;;;;;;4993116;28;20208;-87
2023/04/19 00:46:08;;;;;;;8.50;3.93;;;;;;;;;;5011329;28;20235;-87
2023/04/19 00:48:36;;;;;;;4.73;4.17;;;;;;;;;;5003696;28;20211;-86
2023/04/19 00:51:03;;;;;;;4.37;3.97;;;;;;;;;;4999554;28;20255;-87
2023/04/19 00:53:31;;;;;;;3.90;3.50;;;;;;;;;;5000256;28;20697;-86
2023/04/19 00:56:00;;;;;;;4.60;3.83;;;;;;;;;;5010631;28;20246;-87
2023/04/19 00:58:30;;;;;;;4.07;3.70;;;;;;;;;;5002024;28;20219;-86
2023/04/19 01:00:57;;;;;;;6.43;3.90;;;;;;;;;;5010688;28;20230;-85
2023/04/19 01:03:26;;;;;;;4.73;4.00;;;;;;;;;;5012128;28;20216;-84
2023/04/19 01:05:53;;;;;;;4.93;3.93;;;;;;;;;;5005244;28;20231;-84
2023/04/19 01:08:20;;;;;;;4.90;3.90;;;;;;;;;;5009374;28;20223;-84
2023/04/19 01:10:47;;;;;;;5.07;4.20;;;;;;;;;;5012723;28;20234;-84
2023/04/19 01:13:15;;;;;;;4.90;4.40;;;;;;;;;;5004961;28;20216;-84
2023/04/19 01:15:42;;;;;;;4.20;3.80;;;;;;;;;;5002732;28;20239;-86
2023/04/19 01:18:10;;;;;;;4.97;4.20;;;;;;;;;;5014647;28;20581;-86
2023/04/19 01:20:37;;;;;;;4.20;3.80;;;;;;;;;;5014205;28;20231;-86
2023/04/19 01:23:05;;;;;;;5.10;4.00;;;;;;;;;;5014910;28;20211;-86
2023/04/19 01:25:32;;;;;;;4.53;4.13;;;;;;;;;;5014654;28;20236;-86
2023/04/19 01:27:59;;;;;;;4.30;3.90;;;;;;;;;;5011953;28;20215;-86
2023/04/19 01:30:26;;;;;;;5.73;4.57;;;;;;;;;;5009698;28;20228;-87
2023/04/19 01:32:53;;;;;;;5.00;4.50;;;;;;;;;;5000216;28;20218;-86
2023/04/19 01:35:20;;;;;;;5.43;4.93;;;;;;;;;;5014233;28;20207;-86
2023/04/19 01:37:48;;;;;;;4.80;4.30;;;;;;;;;;5006389;28;20242;-86
2023/04/19 01:40:16;;;;;;;4.63;4.13;;;;;;;;;;5009372;28;20210;-86
2023/04/19 01:42:43;;;;;;;4.77;4.37;;;;;;;;;;5005765;28;20708;-86
2023/04/19 01:45:10;;;;;;;5.43;4.93;;;;;;;;;;5007125;28;20226;-86
2023/04/19 01:47:37;;;;;;;4.43;4.03;;;;;;;;;;5013082;28;20235;-86
2023/04/19 01:50:05;;;;;;;5.87;4.43;;;;;;;;;;5006481;28;20963;-87
2023/04/19 01:52:32;;;;;;;4.80;4.40;;;;;;;;;;5014043;28;20231;-86
2023/04/19 01:54:59;;;;;;;4.87;4.37;;;;;;;;;;4998352;28;20222;-86
2023/04/19 01:57:27;;;;;;;4.77;4.37;;;;;;;;;;5005767;28;20235;-86
2023/04/19 01:59:55;;;;;;;4.43;4.03;;;;;;;;;;5006163;28;20219;-86
2023/04/19 02:02:23;;;;;;;4.67;4.27;;;;;;;;;;5007453;28;20231;-87
2023/04/19 02:04:50;;;;;;;4.57;4.17;;;;;;;;;;5010732;28;20219;-86
2023/04/19 02:07:17;;;;;;;5.13;4.63;;;;;;;;;;5008425;28;20231;-86
2023/04/19 02:09:44;;;;;;;4.33;3.93;;;;;;;;;;5001003;28;20278;-86
2023/04/19 02:12:11;;;;;;;5.23;4.30;;;;;;;;;;5013897;28;20231;-86
2023/04/19 02:14:39;;;;;;;4.70;4.20;;;;;;;;;;5005711;28;20696;-86
2023/04/19 02:17:06;;;;;;;5.13;4.50;;;;;;;;;;5005639;28;20269;-86
2023/04/19 02:19:33;;;;;;;4.83;4.30;;;;;;;;;;5013408;28;20674;-86
2023/04/19 02:22:01;;;;;;;5.93;4.90;;;;;;;;;;5013484;28;20238;-86
2023/04/19 02:24:28;;;;;;;6.43;5.00;;;;;;;;;;4999734;28;20211;-86
2023/04/19 02:26:55;;;;;;;6.13;4.80;;;;;;;;;;4995701;28;20317;-86
2023/04/19 02:29:22;;;;;;;5.70;4.60;;;;;;;;;;5008082;28;20701;-86
2023/04/19 02:31:50;;;;;;;5.17;4.67;;;;;;;;;;5010344;28;20231;-86
2023/04/19 02:34:17;;;;;;;5.10;4.17;;;;;;;;;;5007633;28;20211;-86
2023/04/19 02:36:44;;;;;;;5.17;4.77;;;;;;;;;;5009403;28;20232;-86
2023/04/19 02:39:12;;;;;;;5.40;4.87;;;;;;;;;;5011306;28;20208;-86
2023/04/19 02:41:39;;;;;;;7.13;5.03;;;;;;;;;;5001453;28;20247;-86
2023/04/19 02:44:07;;;;;;;7.47;5.47;;;;;;;;;;5005099;28;20214;-87
2023/04/19 02:46:34;;;;;;;5.93;5.33;;;;;;;;;;5003696;28;20238;-86
2023/04/19 02:49:02;;;;;;;6.03;5.43;;;;;;;;;;4996475;28;20212;-86
2023/04/19 02:51:29;;;;;;;7.13;6.03;;;;;;;;;;5006321;28;20295;-86
2023/04/19 02:53:56;;;;;;;6.30;5.70;;;;;;;;;;4997983;28;20216;-86
2023/04/19 02:56:24;;;;;;;5.23;4.50;;;;;;;;;;5000904;28;20231;-86
2023/04/19 02:58:51;;;;;;;6.50;5.23;;;;;;;;;;5000699;28;20215;-86
2023/04/19 03:01:18;;;;;;;5.33;4.83;;;;;;;;;;4999810;28;20236;-86
2023/04/19 03:03:46;;;;;;;5.87;4.97;;;;;;;;;;5007287;28;20215;-86
2023/04/19 03:06:15;;;;;;;6.00;5.40;;;;;;;;;;4998837;28;20226;-86
2023/04/19 03:08:42;;;;;;;6.47;5.20;;;;;;;;;;5011078;28;20203;-86
2023/04/19 03:11:09;;;;;;;5.57;5.07;;;;;;;;;;5012362;28;20235;-86
2023/04/19 03:13:36;;;;;;;5.80;5.20;;;;;;;;;;5005738;28;20299;-86
2023/04/19 03:16:05;;;;;;;6.57;5.30;;;;;;;;;;5011536;28;20338;-86
2023/04/19 03:18:32;;;;;;;6.33;5.27;;;;;;;;;;5006213;28;20214;-86
2023/04/19 03:20:59;;;;;;;6.30;5.70;;;;;;;;;;5000831;28;20242;-86
2023/04/19 03:23:27;;;;;;;5.83;5.30;;;;;;;;;;5004620;28;20207;-86
2023/04/19 03:25:55;;;;;;;6.00;5.43;;;;;;;;;;5006297;23;20673;-82
2023/04/19 03:28:22;;;;;;;5.57;5.03;;;;;;;;;;4992392;28;20215;-83
2023/04/19 03:30:49;;;;;;;6.40;5.27;;;;;;;;;;4993032;28;20268;-83
2023/04/19 03:33:16;;;;;;;5.60;5.03;;;;;;;;;;4989309;28;20216;-83
2023/04/19 03:35:44;;;;;;;6.87;5.37;;;;;;;;;;4988906;28;21571;-83
2023/04/19 03:38:11;;;;;;;7.43;6.00;;;;;;;;;;4985191;28;20287;-84
2023/04/19 03:40:39;;;;;;;7.20;6.50;;;;;;;;;;4994652;28;20251;-83
2023/04/19 03:43:07;;;;;;;7.47;6.57;;;;;;;;;;4983381;28;20211;-83
2023/04/19 03:45:34;;;;;;;8.57;6.57;;;;;;;;;;4988214;28;20599;-83
2023/04/19 03:48:01;;;;;;;8.43;6.93;;;;;;;;;;4993108;28;20230;-83
2023/04/19 03:50:28;;;;;;;8.37;7.17;;;;;;;;;;4992239;28;20600;-83
2023/04/19 03:52:55;;;;;;;10.53;7.43;;;;;;;;;;4985006;28;20280;-83
2023/04/19 03:55:22;;;;;;;8.77;6.70;;;;;;;;;;4992774;28;20208;-83
2023/04/19 03:57:50;;;;;;;7.30;6.47;;;;;;;;;;4993329;28;20203;-83
2023/04/19 04:00:18;;;;;;;7.87;6.40;;;;;;;;;;4992441;28;20200;-83
2023/04/19 04:02:45;;;;;;;8.70;6.60;;;;;;;;;;4992864;28;20223;-83
2023/04/19 04:05:12;;;;;;;7.77;6.10;;;;;;;;;;4977481;28;20212;-83
2023/04/19 04:07:39;;;;;;;7.37;6.20;;;;;;;;;;5020829;28;20235;-83
2023/04/19 04:10:06;;;;;;;6.27;5.67;;;;;;;;;;5015255;28;20215;-83
2023/04/19 04:12:34;;;;;;;6.40;5.77;;;;;;;;;;5032227;28;20239;-85
2023/04/19 04:15:02;;;;;;;6.43;5.40;;;;;;;;;;5006807;28;20269;-85
2023/04/19 04:17:29;;;;;;;7.03;6.07;;;;;;;;;;5022685;28;20231;-84
2023/04/19 04:19:56;;;;;;;6.80;6.10;;;;;;;;;;5015446;28;20211;-86
2023/04/19 04:22:23;;;;;;;6.83;6.10;;;;;;;;;;5016977;28;20701;-83
2023/04/19 04:24:52;;;;;;;7.73;6.83;;;;;;;;;;5012233;28;20211;-84
2023/04/19 04:27:20;;;;;;;8.93;6.53;;;;;;;;;;5015641;28;20292;-83
2023/04/19 04:29:48;;;;;;;8.67;6.90;;;;;;;;;;5023220;28;20206;-83
2023/04/19 04:32:16;;;;;;;7.37;6.47;;;;;;;;;;5011468;28;20322;-85
2023/04/19 04:34:44;;;;;;;8.97;7.17;;;;;;;;;;5012233;28;20218;-86
2023/04/19 04:37:12;;;;;;;9.57;7.70;;;;;;;;;;5014499;28;20231;-85
2023/04/19 04:39:39;;;;;;;7.57;6.63;;;;;;;;;;5023477;28;20618;-85
2023/04/19 04:42:07;;;;;;;7.67;6.93;;;;;;;;;;5016690;28;20597;-83
2023/04/19 04:44:34;;;;;;;8.27;7.30;;;;;;;;;;5022639;28;20236;-84
2023/04/19 04:47:01;;;;;;;11.83;8.10;;;;;;;;;;5026273;28;20241;-86
2023/04/19 04:49:30;;;;;;;10.93;7.50;;;;;;;;;;5016062;28;20692;-85
2023/04/19 04:51:57;;;;;;;9.27;7.40;;;;;;;;;;5015467;28;20655;-85
2023/04/19 04:54:24;;;;;;;10.87;8.63;;;;;;;;;;5023335;28;20214;-85
2023/04/19 04:56:51;;;;;;;11.67;8.93;;;;;;;;;;5016096;28;20234;-86
2023/04/19 04:59:18;;;;;;;11.23;8.30;;;;;;;;;;5016722;28;20237;-86
2023/04/19 05:01:45;;;;;;;12.70;8.20;;;;;;;;;;5016038;28;20231;-86
2023/04/19 05:04:12;;;;;;;10.03;8.33;;;;;;;;;;5025533;28;20207;-86
2023/04/19 05:06:41;;;;;;;11.20;8.27;;;;;;;;;;5020721;28;20243;-85
2023/04/19 05:09:08;;;;;;;12.63;8.50;;;;;;;;;;5019917;28;20212;-86
2023/04/19 05:11:35;;;;;;;9.33;7.70;;;;;;;;;;5023402;28;20627;-84
2023/04/19 05:14:03;;;;;;;10.37;8.33;;;;;;;;;;5011499;28;20216;-84
2023/04/19 05:16:31;;;;;;;10.03;8.53;;;;;;;;;;5015794;28;20798;-84
2023/04/19 05:18:58;;;;;;;9.80;8.50;;;;;;;;;;5016460;28;20207;-84
2023/04/19 05:21:26;;;;;;;11.23;9.17;;;;;;;;;;5015175;28;20224;-84
2023/04/19 05:23:56;;;;;;;9.43;8.30;;;;;;;;;;5015721;28;20215;-84
2023/04/19 05:26:23;;;;;;;11.20;8.63;;;;;;;;;;5014844;28;20231;-84
2023/04/19 05:28:50;;;;;;;11.93;8.53;;;;;;;;;;5015686;28;20218;-84
2023/04/19 05:31:17;;;;;;;14.97;8.73;;;;;;;;;;5007157;28;20246;-84
2023/04/19 05:33:44;;;;;;;11.03;8.73;;;;;;;;;;5014956;28;20207;-84
2023/04/19 05:36:11;;;;;;;12.80;9.03;;;;;;;;;;5014504;28;20246;-83
2023/04/19 05:38:38;;;;;;;10.50;8.43;;;;;;;;;;5015235;28;20215;-84
2023/04/19 05:41:06;;;;;;;12.77;9.33;;;;;;;;;;5014491;28;20235;-84
2023/04/19 05:43:33;;;;;;;11.73;8.43;;;;;;;;;;5015100;28;20218;-83
2023/04/19 05:46:01;;;;;;;22.60;9.47;;;;;;;;;;5014582;28;20326;-84
2023/04/19 05:48:28;;;;;;;11.80;8.90;;;;;;;;;;5014454;28;20216;-84
2023/04/19 05:50:56;;;;;;;11.57;8.73;;;;;;;;;;5014114;28;20232;-84
2023/04/19 05:53:24;;;;;;;12.90;9.57;;;;;;;;;;5015007;28;20207;-84
2023/04/19 05:55:51;;;;;;;11.83;9.17;;;;;;;;;;5014359;28;20239;-84
2023/04/19 05:58:19;;;;;;;13.47;9.73;;;;;;;;;;5006793;28;20207;-85
2023/04/19 06:00:47;;;;;;;11.50;9.37;;;;;;;;;;5014639;28;20599;-84
2023/04/19 06:03:14;;;;;;;11.67;8.63;;;;;;;;;;5015379;28;20206;-85
2023/04/19 06:05:42;;;;;;;13.63;9.50;;;;;;;;;;5015324;28;20243;-84
2023/04/19 06:08:10;;;;;;;12.27;9.63;;;;;;;;;;5011262;28;20219;-84
2023/04/19 06:10:37;;;;;;;12.03;9.40;;;;;;;;;;5000237;28;20235;-84
2023/04/19 06:13:04;;;;;;;12.13;9.50;;;;;;;;;;5006852;28;20223;-84
2023/04/19 06:15:33;;;;;;;16.27;9.47;;;;;;;;;;5012444;28;20234;-84
2023/04/19 06:18:00;;;;;;;14.20;10.20;;;;;;;;;;5014370;28;20218;-83
2023/04/19 06:20:27;;;;;;;14.07;10.10;;;;;;;;;;5008961;28;20231;-84
2023/04/19 06:22:54;;;;;;;16.90;10.90;;;;;;;;;;5021758;28;20211;-85
2023/04/19 06:25:21;;;;;;;13.50;9.33;;;;;;;;;;5013649;28;20209;-84
2023/04/19 06:27:48;;;;;;;20.37;9.43;;;;;;;;;;5013841;28;20564;-84
2023/04/19 06:30:15;;;;;;;18.23;9.20;;;;;;;;;;5012843;28;20598;-85
2023/04/19 06:32:44;;;;;;;13.87;9.43;;;;;;;;;;5013568;28;20251;-84
2023/04/19 06:35:11;;;;;;;12.63;8.80;;;;;;;;;;5012838;28;20211;-84
2023/04/19 06:37:38;;;;;;;14.20;9.57;;;;;;;;;;5013766;28;20237;-85
2023/04/19 06:40:07;;;;;;;10.57;7.50;;;;;;;;;;5012973;28;20215;-84
2023/04/19 06:42:34;;;;;;;9.80;7.63;;;;;;;;;;5014032;28;20218;-84
2023/04/19 06:45:01;;;;;;;11.40;8.10;;;;;;;;;;5018308;28;20215;-84
2023/04/19 06:47:29;;;;;;;10.73;7.60;;;;;;;;;;5024524;28;20229;-84
2023/04/19 06:49:58;;;;;;;9.60;8.37;;;;;;;;;;5009655;28;20580;-84
2023/04/19 06:52:25;;;;;;;8.63;7.03;;;;;;;;;;5012331;28;20231;-83
2023/04/19 06:54:52;;;;;;;10.07;8.57;;;;;;;;;;5013433;28;20223;-84
2023/04/19 06:57:19;;;;;;;9.37;8.20;;;;;;;;;;5011995;28;20263;-84
2023/04/19 06:59:47;;;;;;;9.33;7.80;;;;;;;;;;5013071;28;20250;-84
2023/04/19 07:02:14;;;;;;;10.83;8.53;;;;;;;;;;5012034;28;20745;-83
2023/04/19 07:04:41;;;;;;;11.67;8.13;;;;;;;;;;5013382;28;20231;-84
2023/04/19 07:07:09;;;;;;;11.53;8.27;;;;;;;;;;5013553;28;20238;-83
2023/04/19 07:09:36;;;;;;;12.17;7.47;;;;;;;;;;5010209;28;20692;-85
2023/04/19 07:12:03;;;;;;;10.03;8.70;;;;;;;;;;5002608;28;20242;-85
2023/04/19 07:14:30;;;;;;;10.67;8.17;;;;;;;;;;5008974;28;20208;-84
2023/04/19 07:16:57;;;;;;;8.33;7.07;;;;;;;;;;5003563;28;20244;-84
2023/04/19 07:19:25;;;;;;;9.20;8.10;;;;;;;;;;5020589;28;20361;-84
2023/04/19 07:21:52;;;;;;;9.70;7.93;;;;;;;;;;5005243;28;20236;-84
2023/04/19 07:24:20;;;;;;;11.07;8.00;;;;;;;;;;4997395;28;20234;-84
2023/04/19 07:26:47;;;;;;;9.27;7.53;;;;;;;;;;5004231;28;20310;-85
2023/04/19 07:29:14;;;;;;;9.70;6.93;;;;;;;;;;4993624;28;20220;-85
2023/04/19 07:31:42;;;;;;;10.23;7.20;;;;;;;;;;4998305;28;20227;-85
2023/04/19 07:34:09;;;;;;;8.30;6.90;;;;;;;;;;5010439;28;20211;-84
2023/04/19 07:36:36;;;;;;;10.63;7.03;;;;;;;;;;5006631;28;20271;-85
2023/04/19 07:39:04;;;;;;;7.97;6.93;;;;;;;;;;5010246;28;20211;-84
2023/04/19 07:41:33;;;;;;;13.60;7.20;;;;;;;;;;5009935;28;20257;-84
2023/04/19 07:44:00;;;;;;;9.53;6.20;;;;;;;;;;5012290;28;20207;-84
2023/04/19 07:46:27;;;;;;;7.67;6.40;;;;;;;;;;5011719;28;20623;-84
2023/04/19 07:48:54;;;;;;;7.63;6.03;;;;;;;;;;5005095;28;20212;-84
2023/04/19 07:51:23;;;;;;;8.33;5.97;;;;;;;;;;5000275;28;20603;-84
2023/04/19 07:53:50;;;;;;;8.60;6.37;;;;;;;;;;5008825;28;20282;-84
2023/04/19 07:56:18;;;;;;;11.60;6.57;;;;;;;;;;5011733;28;20235;-84
2023/04/19 07:58:47;;;;;;;7.93;6.43;;;;;;;;;;5012757;28;20294;-84
2023/04/19 08:01:14;;;;;;;7.57;6.00;;;;;;;;;;5013868;28;20627;-85
2023/04/19 08:03:41;;;;;;;7.10;5.10;;;;;;;;;;5000174;28;20692;-85
2023/04/19 08:06:08;;;;;;;6.80;5.43;;;;;;;;;;4997070;28;20240;-84
2023/04/19 08:08:37;;;;;;;5.27;4.57;;;;;;;;;;4998456;28;20276;-86
2023/04/19 08:11:05;;;;;;;5.17;4.67;;;;;;;;;;5014101;28;20234;-84
2023/04/19 08:13:32;;;;;;;6.00;4.60;;;;;;;;;;5010769;28;20223;-84
2023/04/19 08:16:00;;;;;;;9.90;7.77;;;;;;;;;;5004622;28;20239;-84
2023/04/19 08:18:27;;;;;;;5.90;4.80;;;;;;;;;;4996158;28;20211;-84
2023/04/19 08:20:55;;;;;;;6.30;4.97;;;;;;;;;;5005565;28;20614;-85
2023/04/19 08:23:22;;;;;;;5.20;4.43;;;;;;;;;;5002663;28;20214;-84
2023/04/19 08:25:49;;;;;;;5.20;4.70;;;;;;;;;;5010961;28;20589;-84
2023/04/19 08:28:17;;;;;;;7.03;4.80;;;;;;;;;;4993388;28;20220;-84
2023/04/19 08:30:44;;;;;;;6.13;4.97;;;;;;;;;;4999376;28;20705;-85
2023/04/19 08:33:12;;;;;;;5.07;4.23;;;;;;;;;;5010227;28;20239;-85
2023/04/19 08:35:40;;;;;;;6.03;4.90;;;;;;;;;;5004818;28;20284;-83
2023/04/19 08:38:07;;;;;;;5.23;4.43;;;;;;;;;;5002823;28;20649;-84
2023/04/19 08:40:34;;;;;;;7.47;4.93;;;;;;;;;;5010694;28;20231;-84
2023/04/19 08:43:05;;;;;;;4.60;4.10;;;;;;;;;;5002956;28;20408;-84
2023/04/19 08:45:33;;;;;;;4.77;4.27;;;;;;;;;;5003146;28;20266;-84
2023/04/19 08:48:02;;;;;;;4.80;4.40;;;;;;;;;;4995186;28;20212;-85
2023/04/19 08:50:31;;;;;;;5.77;4.17;;;;;;;;;;5006329;28;20775;-84
2023/04/19 08:52:59;;;;;;;5.10;4.60;;;;;;;;;;5007852;28;20621;-84
2023/04/19 08:55:28;;;;;;;5.03;4.53;;;;;;;;;;4992873;28;20234;-84
2023/04/19 08:57:57;;;;;;;6.87;4.90;;;;;;;;;;4999913;28;20207;-84
2023/04/19 09:00:24;;;;;;;5.77;4.53;;;;;;;;;;4999539;28;20307;-85
2023/04/19 09:02:52;;;;;;;5.67;4.40;;;;;;;;;;5006494;28;20207;-84
2023/04/19 09:05:20;;;;;;;5.27;4.40;;;;;;;;;;5011048;28;20215;-84
2023/04/19 09:07:49;;;;;;;4.87;4.33;;;;;;;;;;4997582;28;20262;-84
2023/04/19 09:10:19;;;;;;;6.60;3.97;;;;;;;;;;4990061;28;20215;-84
2023/04/19 09:13:00;;;;;;;4.77;4.27;;;;;;;;;;4998802;28;20224;-84
2023/04/19 09:15:35;;;;;;;7.77;4.20;;;;;;;;;;4997665;28;20711;-84
2023/04/19 09:18:04;;;;;;;4.97;4.10;;;;;;;;;;5002454;28;20255;-84
2023/04/19 09:20:36;;;;;;;5.30;4.03;;;;;;;;;;4994077;28;20258;-85
2023/04/19 09:23:06;;;;;;;4.03;3.63;;;;;;;;;;5007520;28;20578;-84
2023/04/19 09:25:33;;;;;;;4.37;3.97;;;;;;;;;;5006728;28;20235;-85
2023/04/19 09:28:09;;;;;;;4.00;3.70;;;;;;;;;;5044597;23;20297;-85
2023/04/19 09:30:36;;;;;;;5.33;3.70;;;;;;;;;;5025578;28;20241;-85
2023/04/19 09:33:03;;;;;;;6.63;3.77;;;;;;;;;;5021363;28;20239;-85
2023/04/19 09:35:40;;;;;;;4.00;3.70;;;;;;;;;;5024891;28;20233;-86
2023/04/19 09:38:08;;;;;;;4.13;3.77;;;;;;;;;;5008669;28;20646;-84
2023/04/19 09:40:35;;;;;;;4.00;3.60;;;;;;;;;;5024422;28;20233;-84
2023/04/19 09:43:03;;;;;;;4.80;3.77;;;;;;;;;;5024237;28;20210;-84
2023/04/19 09:45:40;;;;;;;4.90;3.70;;;;;;;;;;5024547;28;20241;-85
2023/04/19 09:48:07;;;;;;;7.60;3.97;;;;;;;;;;5024876;28;20715;-84
2023/04/19 09:50:35;;;;;;;3.70;3.27;;;;;;;;;;5016987;28;20234;-85
2023/04/19 09:53:02;;;;;;;3.70;3.40;;;;;;;;;;5023334;28;20235;-84
2023/04/19 09:55:31;;;;;;;5.03;3.73;;;;;;;;;;5015721;28;20233;-85
2023/04/19 09:57:58;;;;;;;4.63;3.57;;;;;;;;;;5014207;28;20231;-84
2023/04/19 10:00:25;;;;;;;4.60;3.57;;;;;;;;;;5014537;28;21310;-85
2023/04/19 10:02:56;;;;;;;3.63;3.20;;;;;;;;;;5026611;28;20219;-84
2023/04/19 10:05:24;;;;;;;3.70;3.30;;;;;;;;;;5024548;28;20211;-84
2023/04/19 10:07:51;;;;;;;6.10;3.37;;;;;;;;;;5027051;28;20254;-84
2023/04/19 10:10:18;;;;;;;3.47;3.17;;;;;;;;;;5015677;28;20571;-83
2023/04/19 10:12:49;;;;;;;6.00;3.10;;;;;;;;;;5019344;28;20226;-83
2023/04/19 10:15:16;;;;;;;3.73;2.93;;;;;;;;;;5015798;28;20215;-85
2023/04/19 10:17:44;;;;;;;3.33;3.03;;;;;;;;;;5021252;28;20227;-84
2023/04/19 10:20:13;;;;;;;3.83;3.33;;;;;;;;;;5014143;28;20222;-85
2023/04/19 10:22:41;;;;;;;3.43;3.13;;;;;;;;;;5012770;28;20212;-83
2023/04/19 10:25:11;;;;;;;3.53;3.23;;;;;;;;;;5012700;28;20211;-85
2023/04/19 10:27:39;;;;;;;4.37;3.17;;;;;;;;;;5006294;28;20322;-84
2023/04/19 10:30:16;;;;;;;3.90;3.50;;;;;;;;;;5017956;28;20248;-85
2023/04/19 10:32:45;;;;;;;3.63;3.00;;;;;;;;;;5013891;28;20718;-84
2023/04/19 10:35:18;;;;;;;3.50;3.20;;;;;;;;;;5020310;28;20216;-84
2023/04/19 10:38:00;;;;;;;4.43;2.80;;;;;;;;;;5027308;28;20261;-84
2023/04/19 10:40:42;;;;;;;3.67;3.27;;;;;;;;;;5029176;28;20734;-85
2023/04/19 10:43:16;;;;;;;7.30;3.30;;;;;;;;;;5022577;28;20207;-84
2023/04/19 10:45:45;;;;;;;6.22;3.30;;;;;;;;;;5025402;28;20250;-84
2023/04/19 10:48:29;;;;;;;3.63;3.33;;;;;;;;;;5033735;28;20322;-84
2023/04/19 10:50:59;;;;;;;3.77;2.83;;;;;;;;;;5032475;28;20238;-83
2023/04/19 10:53:45;;;;;;;3.95;2.85;;;;;;;;;;5033860;28;20577;-84
2023/04/19 10:56:13;;;;;;;5.00;3.75;;;;;;;;;;5038954;28;20237;-84
2023/04/19 10:58:58;;;;;;;8.50;3.17;;;;;;;;;;5030579;28;20206;-85
2023/04/19 11:01:38;;;;;;;3.60;3.15;;;;;;;;;;5032325;28;20926;-83
2023/04/19 11:04:05;;;;;;;3.45;3.15;;;;;;;;;;5035027;28;20211;-84
2023/04/19 11:06:33;;;;;;;3.40;3.10;;;;;;;;;;5020472;28;20262;-84
2023/04/19 11:09:01;;;;;;;3.65;3.30;;;;;;;;;;5019602;28;20207;-84
2023/04/19 11:11:29;;;;;;;3.50;3.20;;;;;;;;;;5024626;28;20258;-82
2023/04/19 11:13:56;;;;;;;5.25;3.22;;;;;;;;;;5041424;28;20680;-83
2023/04/19 11:16:24;;;;;;;3.85;3.53;;;;;;;;;;5029379;28;20244;-83
2023/04/19 11:18:54;;;;;;;3.65;3.13;;;;;;;;;;5044856;28;20206;-82
2023/04/19 11:21:22;;;;;;;3.28;3.03;;;;;;;;;;5043952;28;20262;-83
2023/04/19 11:23:49;;;;;;;3.33;3.03;;;;;;;;;;5032609;28;20311;-83
2023/04/19 11:26:16;;;;;;;3.80;3.17;;;;;;;;;;5022173;28;20239;-82
2023/04/19 11:28:45;;;;;;;2.97;2.75;;;;;;;;;;5031894;28;20202;-83
2023/04/19 11:31:12;;;;;;;4.60;3.17;;;;;;;;;;5021026;28;20235;-83
2023/04/19 11:33:39;;;;;;;3.40;3.03;;;;;;;;;;5015933;28;20223;-83
2023/04/19 11:36:12;;;;;;;3.05;2.70;;;;;;;;;;5016181;28;20231;-84
2023/04/19 11:38:39;;;;;;;3.42;2.53;;;;;;;;;;5011973;28;20238;-84
2023/04/19 11:41:06;;;;;;;3.08;2.88;;;;;;;;;;5010996;28;20235;-84
2023/04/19 11:43:33;;;;;;;2.88;2.65;;;;;;;;;;5021070;28;20214;-84
2023/04/19 11:46:05;;;;;;;3.20;2.90;;;;;;;;;;5029745;28;20226;-84
2023/04/19 11:48:32;;;;;;;3.88;2.95;;;;;;;;;;5030603;28;20676;-84
2023/04/19 11:51:00;;;;;;;2.97;2.67;;;;;;;;;;5016082;28;20234;-84
2023/04/19 11:53:28;;;;;;;12.82;3.40;;;;;;;;;;5010241;28;20281;-84
2023/04/19 11:55:57;;;;;;;2.40;2.20;;;;;;;;;;5024602;28;20241;-83
2023/04/19 11:58:29;;;;;;;3.08;2.70;;;;;;;;;;5018408;28;20217;-83
2023/04/19 12:00:57;;;;;;;2.08;1.88;;;;;;;;;;5024633;28;20622;-88
2023/04/19 12:03:24;;;;;;;3.22;2.42;;;;;;;;;;5018944;28;20202;-88
2023/04/19 12:05:55;;;;;;;3.00;2.25;;;;;;;;;;5019803;28;20222;-88
2023/04/19 12:08:31;;;;;;;2.83;2.55;;;;;;;;;;5015447;28;20215;-87
2023/04/19 12:10:59;;;;;;;3.03;2.30;;;;;;;;;;5019831;28;20231;-87
2023/04/19 12:13:26;;;;;;;2.58;2.22;;;;;;;;;;5014813;28;20728;-87
2023/04/19 12:15:54;;;;;;;3.33;2.25;;;;;;;;;;5020769;28;20230;-86
2023/04/19 12:18:21;;;;;;;3.60;2.30;;;;;;;;;;5032335;28;20221;-87
2023/04/19 12:20:48;;;;;;;1.88;1.77;;;;;;;;;;5027896;28;20602;-85
2023/04/19 12:23:16;;;;;;;1.90;1.77;;;;;;;;;;5022834;28;20203;-87
2023/04/19 12:25:45;;;;;;;1.85;1.70;;;;;;;;;;5010956;28;20231;-87
2023/04/19 12:28:12;;;;;;;3.75;1.50;;;;;;;;;;5013145;28;20262;-87
2023/04/19 12:30:39;;;;;;;1.65;1.55;;;;;;;;;;5028064;28;20234;-87
2023/04/19 12:33:07;;;;;;;3.70;1.67;;;;;;;;;;5027481;28;20207;-87
2023/04/19 12:35:34;;;;;;;1.67;1.58;;;;;;;;;;5012547;28;20234;-87
2023/04/19 12:38:02;;;;;;;3.35;1.77;;;;;;;;;;5023405;28;20281;-87
2023/04/19 12:40:29;;;;;;;1.90;1.73;;;;;;;;;;5028238;28;20233;-87
2023/04/19 12:42:58;;;;;;;2.05;1.73;;;;;;;;;;5011271;28;20326;-87
2023/04/19 12:45:26;;;;;;;3.05;1.85;;;;;;;;;;5010262;28;20349;-87
2023/04/19 12:47:53;;;;;;;3.50;1.50;;;;;;;;;;5015534;28;20731;-86
2023/04/19 12:50:20;;;;;;;1.70;1.60;;;;;;;;;;5021514;28;20207;-87
2023/04/19 12:52:47;;;;;;;1.60;1.50;;;;;;;;;;5018240;28;20685;-86
2023/04/19 12:55:14;;;;;;;2.35;1.38;;;;;;;;;;5011434;28;20274;-88
2023/04/19 12:57:42;;;;;;;1.08;1.00;;;;;;;;;;5013394;28;20231;-88
2023/04/19 13:00:11;;;;;;;1.65;1.33;;;;;;;;;;5016202;28;20199;-88
2023/04/19 13:02:38;;;;;;;2.00;1.40;;;;;;;;;;5025771;28;20606;-87
2023/04/19 13:05:06;;;;;;;1.30;1.20;;;;;;;;;;5037549;28;20203;-88
2023/04/19 13:07:33;;;;;;;1.58;1.48;;;;;;;;;;5039998;28;20288;-89
2023/04/19 13:10:00;;;;;;;1.70;1.10;;;;;;;;;;5022907;28;20210;-88
2023/04/19 13:12:28;;;;;;;2.92;1.25;;;;;;;;;;5019784;28;20230;-87
2023/04/19 13:14:55;;;;;;;1.42;1.33;;;;;;;;;;5016801;28;20231;-84
2023/04/19 13:17:24;;;;;;;2.10;1.40;;;;;;;;;;5022402;28;20321;-84
2023/04/19 13:19:51;;;;;;;2.60;1.23;;;;;;;;;;5020982;28;20622;-84
2023/04/19 13:22:18;;;;;;;2.03;1.02;;;;;;;;;;5012990;28;20227;-84
2023/04/19 13:24:45;;;;;;;2.20;1.13;;;;;;;;;;5017012;28;20584;-84
2023/04/19 13:27:12;;;;;;;2.13;1.30;;;;;;;;;;5024059;28;20238;-84
2023/04/19 13:29:39;;;;;;;1.95;1.50;;;;;;;;;;5032289;28;20210;-84
2023/04/19 13:32:11;;;;;;;1.55;1.45;;;;;;;;;;5019666;28;20247;-84
2023/04/19 13:34:40;;;;;;;1.00;0.88;;;;;;;;;;5024234;28;20227;-84
2023/04/19 13:37:07;;;;;;;1.77;0.95;;;;;;;;;;5024747;28;20258;-84
2023/04/19 13:39:34;;;;;;;1.40;1.30;;;;;;;;;;5022753;28;20231;-84
2023/04/19 13:42:02;;;;;;;1.73;1.15;;;;;;;;;;5017050;28;20227;-83
2023/04/19 13:44:29;;;;;;;1.30;1.15;;;;;;;;;;5014568;28;20270;-84
2023/04/19 13:46:56;;;;;;;2.05;1.33;;;;;;;;;;5023385;28;20259;-84
2023/04/19 13:49:24;;;;;;;1.67;1.20;;;;;;;;;;5010749;28;20660;-84
2023/04/19 13:51:52;;;;;;;1.25;1.15;;;;;;;;;;5032725;28;20226;-84
2023/04/19 13:54:19;;;;;;;1.75;1.10;;;;;;;;;;5016827;28;20227;-83
2023/04/19 13:56:46;;;;;;;1.13;1.10;;;;;;;;;;5020827;28;20231;-85
2023/04/19 13:59:14;;;;;;;1.50;1.23;;;;;;;;;;5020811;28;20245;-84
2023/04/19 14:01:41;;;;;;;1.38;1.17;;;;;;;;;;5019687;28;20257;-83
2023/04/19 14:04:08;;;;;;;1.05;0.95;;;;;;;;;;5017859;28;20203;-84
2023/04/19 14:06:35;;;;;;;2.45;1.00;;;;;;;;;;5012060;28;20601;-83
2023/04/19 14:09:04;;;;;;;0.90;0.90;;;;;;;;;;5018212;28;20690;-83
2023/04/19 14:11:31;;;;;;;1.10;1.00;;;;;;;;;;5014623;28;20237;-84
2023/04/19 14:13:58;;;;;;;1.45;1.05;;;;;;;;;;5020217;28;20232;-83
2023/04/19 14:16:25;;;;;;;1.73;1.20;;;;;;;;;;5020715;28;20254;-84
2023/04/19 14:18:52;;;;;;;1.33;1.10;;;;;;;;;;5019490;28;20215;-83
2023/04/19 14:21:19;;;;;;;2.55;1.30;;;;;;;;;;5030211;28;20283;-83
2023/04/19 14:23:46;;;;;;;3.30;1.15;;;;;;;;;;5034015;28;20203;-82
2023/04/19 14:26:15;;;;;;;1.92;1.20;;;;;;;;;;5010500;28;20606;-82
2023/04/19 14:28:42;;;;;;;1.90;1.30;;;;;;;;;;5026817;28;20207;-82
2023/04/19 14:31:09;;;;;;;1.08;1.08;;;;;;;;;;5019816;28;20254;-82
2023/04/19 14:33:36;;;;;;;1.25;1.15;;;;;;;;;;5013511;28;20208;-83
2023/04/19 14:36:03;;;;;;;3.03;1.30;;;;;;;;;;5026218;28;20284;-83
2023/04/19 14:38:30;;;;;;;2.95;1.70;;;;;;;;;;5024696;28;20211;-82
2023/04/19 14:40:57;;;;;;;1.10;1.02;;;;;;;;;;5029172;28;20234;-82
2023/04/19 14:43:26;;;;;;;1.40;1.30;;;;;;;;;;5032748;28;20218;-82
2023/04/19 14:45:53;;;;;;;1.50;1.08;;;;;;;;;;5024111;28;20235;-84